Time;durP1;ratioP1;P1;durP2;ratioP2;P2;SDS_P1;SDS_P2;PMS_P1;PMS_P2;Temp;Humidity;BMP_temperature;BMP_pressure;BME280_temperature;BME280_humidity;BME280_pressure;Samples;Min_cycle;Max_cycle;Signal;HPM_P1;HPM_P2
2021/05/27 00:02:07;;;;;;;2.88;1.20;;;;;;;19.36;47.58;101360.50;5034502;28;20056;-60
2021/05/27 00:04:33;;;;;;;3.17;1.00;;;;;;;19.35;47.82;101374.69;5034018;28;20109;-60
2021/05/27 00:06:59;;;;;;;3.08;1.25;;;;;;;19.31;47.48;101367.94;5034597;28;20053;-60
2021/05/27 00:09:24;;;;;;;3.97;1.35;;;;;;;19.35;47.32;101367.59;5033947;28;20028;-59
2021/05/27 00:11:49;;;;;;;3.42;1.05;;;;;;;19.34;47.56;101370.34;5034941;28;20084;-59
2021/05/27 00:14:14;;;;;;;2.73;1.10;;;;;;;19.31;47.48;101376.72;5034406;28;20142;-59
2021/05/27 00:16:40;;;;;;;2.70;1.10;;;;;;;19.29;47.66;101378.63;5032754;28;20277;-59
2021/05/27 00:19:05;;;;;;;2.92;1.10;;;;;;;19.31;47.72;101375.88;5034188;28;20422;-60
2021/05/27 00:21:31;;;;;;;2.80;1.00;;;;;;;19.31;47.80;101381.16;5033591;28;20392;-59
2021/05/27 00:23:57;;;;;;;2.93;1.10;;;;;;;19.30;47.64;101384.78;5033643;28;20343;-60
2021/05/27 00:26:22;;;;;;;4.18;1.20;;;;;;;19.30;47.69;101387.41;5034237;28;20332;-59
2021/05/27 00:28:47;;;;;;;3.55;1.25;;;;;;;19.29;47.83;101391.00;5034398;28;20108;-58
2021/05/27 00:31:13;;;;;;;5.47;1.43;;;;;;;19.27;47.85;101390.31;5032970;28;20041;-58
2021/05/27 00:33:38;;;;;;;3.17;1.15;;;;;;;19.28;47.49;101386.69;5034312;28;20277;-61
2021/05/27 00:36:04;;;;;;;3.00;1.23;;;;;;;19.27;47.75;101387.66;5033724;28;20029;-59
2021/05/27 00:38:29;;;;;;;2.78;1.13;;;;;;;19.27;47.45;101395.59;5033274;28;20381;-60
2021/05/27 00:40:55;;;;;;;3.50;1.30;;;;;;;19.23;47.81;101384.38;5034348;28;20037;-59
2021/05/27 00:43:20;;;;;;;3.78;1.27;;;;;;;19.24;47.72;101394.00;5033894;28;20055;-59
2021/05/27 00:45:45;;;;;;;3.08;1.20;;;;;;;19.25;47.81;101401.00;5033433;28;20131;-59
2021/05/27 00:48:56;;;;;;;3.65;1.30;;;;;;;19.24;47.27;101401.94;5033432;28;20443;-60
2021/05/27 00:50:58;;;;;;;3.75;1.30;;;;;;;19.24;47.56;101401.09;5033665;28;20025;-58
2021/05/27 00:53:27;;;;;;;5.00;1.45;;;;;;;19.21;47.44;101397.72;5032795;28;20033;-60
2021/05/27 00:55:53;;;;;;;4.30;1.48;;;;;;;19.23;47.54;101396.78;5033888;28;20064;-60
2021/05/27 00:58:22;;;;;;;4.30;1.30;;;;;;;19.19;47.70;101393.53;5033549;28;20388;-60
2021/05/27 01:00:47;;;;;;;3.38;1.20;;;;;;;19.22;47.43;101393.28;5032872;28;20044;-60
2021/05/27 01:03:13;;;;;;;2.97;1.40;;;;;;;19.21;47.55;101397.72;5033174;28;20017;-59
2021/05/27 01:05:39;;;;;;;3.28;1.50;;;;;;;19.21;47.42;101394.25;5032729;28;20377;-59
2021/05/27 01:08:05;;;;;;;3.97;1.30;;;;;;;19.16;47.86;101393.75;5033306;28;20048;-58
2021/05/27 01:10:30;;;;;;;3.25;1.48;;;;;;;19.19;47.77;101394.34;5033480;28;20418;-59
2021/05/27 01:12:56;;;;;;;3.17;1.15;;;;;;;19.17;47.80;101391.00;5032523;28;20025;-59
2021/05/27 01:15:31;;;;;;;3.33;1.25;;;;;;;19.18;47.37;101395.34;5033033;28;20040;-59
2021/05/27 01:18:09;;;;;;;4.70;1.50;;;;;;;19.17;47.45;101393.66;5033163;28;20071;-58
2021/05/27 01:20:35;;;;;;;3.85;1.75;;;;;;;19.17;47.79;101396.28;5032544;28;20033;-60
2021/05/27 01:23:01;;;;;;;4.18;1.38;;;;;;;19.16;47.57;101401.69;5033007;28;20048;-59
2021/05/27 01:25:26;;;;;;;5.55;1.80;;;;;;;19.16;47.63;101410.44;5031648;28;20026;-61
2021/05/27 01:27:55;;;;;;;3.50;1.45;;;;;;;19.16;47.33;101406.97;5032488;28;20376;-58
2021/05/27 01:30:22;;;;;;;4.45;1.70;;;;;;;19.15;47.30;101407.91;5032424;28;20060;-58
2021/05/27 01:32:47;;;;;;;5.07;1.60;;;;;;;19.11;47.53;101409.97;5033085;28;20036;-59
2021/05/27 01:35:16;;;;;;;3.45;1.67;;;;;;;19.14;47.66;101414.19;5031843;28;20361;-59
2021/05/27 01:37:43;;;;;;;4.40;1.80;;;;;;;19.13;47.38;101415.97;5032604;28;20124;-59
2021/05/27 01:40:09;;;;;;;4.43;1.65;;;;;;;19.11;47.30;101417.06;5032145;28;20025;-60
2021/05/27 01:42:34;;;;;;;3.58;1.60;;;;;;;19.12;47.69;101413.44;5031651;28;20021;-60
2021/05/27 01:44:59;;;;;;;3.75;1.65;;;;;;;19.12;47.63;101418.72;5032396;28;20457;-59
2021/05/27 01:47:25;;;;;;;4.13;1.65;;;;;;;19.12;47.60;101416.09;5032645;28;20109;-60
2021/05/27 01:49:53;;;;;;;4.22;1.83;;;;;;;19.10;47.26;101423.28;5032059;28;20498;-60
2021/05/27 01:52:18;;;;;;;4.22;1.58;;;;;;;19.02;47.25;101408.84;5032410;28;20029;-59
2021/05/27 01:54:44;;;;;;;4.97;1.70;;;;;;;19.09;47.21;101419.81;5032720;28;20060;-59
2021/05/27 01:57:09;;;;;;;4.23;1.60;;;;;;;19.10;47.65;101420.66;5031920;28;20282;-59
2021/05/27 01:59:34;;;;;;;3.38;1.40;;;;;;;19.09;47.41;101418.97;5032282;28;20266;-59
2021/05/27 02:02:00;;;;;;;3.72;1.75;;;;;;;19.09;47.38;101418.97;5031633;28;20034;-58
2021/05/27 02:04:25;;;;;;;4.18;1.65;;;;;;;19.06;47.35;101420.06;5031802;28;20094;-59
2021/05/27 02:06:50;;;;;;;5.28;1.90;;;;;;;19.08;47.26;101430.50;5032151;28;20026;-58
2021/05/27 02:09:16;;;;;;;3.80;1.52;;;;;;;19.07;47.52;101427.00;5031042;28;20021;-59
2021/05/27 02:11:49;;;;;;;5.65;2.13;;;;;;;19.08;47.18;101435.78;5032106;28;20418;-59
2021/05/27 02:14:19;;;;;;;3.67;1.95;;;;;;;19.07;47.57;101427.00;5031783;28;20130;-59
2021/05/27 02:16:44;;;;;;;4.40;1.98;;;;;;;19.07;47.17;101427.00;5031701;28;20024;-59
2021/05/27 02:19:10;;;;;;;5.57;2.20;;;;;;;19.06;47.42;101417.41;5031843;28;20038;-59
2021/05/27 02:21:37;;;;;;;7.05;2.55;;;;;;;19.06;47.25;101421.81;5032202;28;20105;-59
2021/05/27 02:24:07;;;;;;;5.63;1.98;;;;;;;19.06;47.23;101427.13;5030874;28;20113;-59
2021/05/27 02:26:32;;;;;;;4.65;1.98;;;;;;;19.06;47.30;101432.41;5031919;28;20491;-60
2021/05/27 02:29:01;;;;;;;4.28;1.67;;;;;;;19.05;47.24;101425.44;5032003;28;20112;-60
2021/05/27 02:31:27;;;;;;;3.75;1.77;;;;;;;19.02;47.46;101429.16;5030777;28;20494;-59
2021/05/27 02:33:53;;;;;;;5.13;2.28;;;;;;;19.04;47.31;101429.88;5031839;28;20119;-59
2021/05/27 02:36:19;;;;;;;5.32;1.95;;;;;;;19.03;47.38;101430.84;5031548;28;20028;-58
2021/05/27 02:38:44;;;;;;;4.38;2.30;;;;;;;19.02;47.27;101426.50;5031124;28;20361;-58
2021/05/27 02:41:10;;;;;;;6.00;2.30;;;;;;;19.02;47.28;101440.56;5031574;28;20559;-59
2021/05/27 02:43:35;;;;;;;4.65;2.00;;;;;;;19.02;47.24;101445.00;5031636;28;20017;-59
2021/05/27 02:46:02;;;;;;;6.35;2.42;;;;;;;19.02;47.40;101447.66;5031152;28;20025;-58
2021/05/27 02:48:31;;;;;;;3.80;2.10;;;;;;;19.01;47.38;101456.53;5031877;28;20428;-58
2021/05/27 02:50:58;;;;;;;5.18;2.10;;;;;;;19.00;47.08;101449.56;5031896;28;20504;-59
2021/05/27 02:53:24;;;;;;;5.40;1.98;;;;;;;18.99;46.88;101455.78;5030900;28;20057;-60
2021/05/27 02:55:51;;;;;;;5.13;2.38;;;;;;;18.99;47.37;101451.38;5031681;28;20049;-59
2021/05/27 02:58:16;;;;;;;5.30;2.25;;;;;;;18.99;47.13;101453.16;5030580;28;20029;-59
2021/05/27 03:00:42;;;;;;;5.75;2.22;;;;;;;18.95;47.11;101451.72;5031868;28;20026;-60
2021/05/27 03:03:07;;;;;;;5.18;2.05;;;;;;;18.97;47.11;101457.72;5031348;28;20568;-60
2021/05/27 03:05:32;;;;;;;5.40;2.35;;;;;;;18.97;46.76;101447.16;5031057;28;20151;-59
2021/05/27 03:07:58;;;;;;;5.30;2.50;;;;;;;18.95;46.77;101446.44;5031781;28;20030;-59
2021/05/27 03:10:23;;;;;;;4.30;2.10;;;;;;;18.95;47.11;101451.72;5031369;28;20036;-59
2021/05/27 03:12:48;;;;;;;8.25;2.33;;;;;;;18.93;47.18;101449.19;5030749;28;20406;-60
2021/05/27 03:15:14;;;;;;;4.38;2.40;;;;;;;18.93;46.80;101450.97;5031266;28;20017;-59
2021/05/27 03:17:39;;;;;;;4.90;2.28;;;;;;;18.93;46.80;101457.13;5031572;28;20030;-60
2021/05/27 03:20:17;;;;;;;4.25;2.30;;;;;;;18.93;46.86;101454.47;5030474;28;20437;-59
2021/05/27 03:22:45;;;;;;;5.53;2.33;;;;;;;18.43;46.71;101370.13;5031486;28;20461;-60
2021/05/27 03:25:11;;;;;;;4.05;2.05;;;;;;;18.92;46.62;101459.88;5031062;28;20084;-60
2021/05/27 03:27:36;;;;;;;5.22;2.63;;;;;;;18.92;46.96;101467.78;5030632;28;20117;-60
2021/05/27 03:30:03;;;;;;;5.68;2.40;;;;;;;18.92;46.70;101468.63;5031217;28;20038;-59
2021/05/27 03:32:28;;;;;;;4.15;2.08;;;;;;;18.92;46.98;101462.50;5031391;28;20022;-59
2021/05/27 03:34:53;;;;;;;4.40;2.03;;;;;;;18.92;46.65;101473.06;5030659;28;20028;-59
2021/05/27 03:37:19;;;;;;;4.30;2.20;;;;;;;18.87;46.90;101468.13;5031060;28;20024;-59
2021/05/27 03:40:10;;;;;;;5.47;2.53;;;;;;;18.91;46.52;101481.94;5031224;28;20297;-59
2021/05/27 03:42:29;;;;;;;5.85;2.78;;;;;;;18.90;46.85;101472.34;5030585;28;20029;-59
2021/05/27 03:44:58;;;;;;;4.82;2.30;;;;;;;18.90;46.79;101477.63;5031443;28;20480;-60
2021/05/27 03:47:23;;;;;;;4.90;2.15;;;;;;;18.89;46.58;101478.59;5030343;28;20040;-59
2021/05/27 03:49:48;;;;;;;5.07;2.28;;;;;;;18.87;46.60;101477.84;5031302;28;20393;-59
2021/05/27 03:52:14;;;;;;;4.65;2.30;;;;;;;18.88;46.92;101479.53;5030888;28;20488;-60
2021/05/27 03:54:39;;;;;;;5.03;2.13;;;;;;;18.89;46.70;101483.88;5030397;28;20536;-58
2021/05/27 03:57:04;;;;;;;5.82;2.03;;;;;;;18.89;46.48;101481.22;5033098;28;20040;-59
2021/05/27 04:02:13;;;;;;;4.30;2.20;;;;;;;18.87;46.61;101488.41;5033622;28;20101;-59
2021/05/27 04:07:25;;;;;;;4.57;2.13;;;;;;;18.86;46.55;101490.22;5034333;28;20037;-59
2021/05/27 04:09:50;;;;;;;4.85;2.30;;;;;;;18.86;46.44;101484.94;5033913;28;20025;-60
2021/05/27 04:17:43;;;;;;;6.68;2.58;;;;;;;18.84;46.34;101486.84;5033993;28;20111;-59
2021/05/27 04:20:09;;;;;;;4.75;2.33;;;;;;;18.83;46.26;101485.13;5034189;28;20453;-60
2021/05/27 04:22:34;;;;;;;5.70;2.50;;;;;;;18.82;46.64;101484.28;5033940;28;20539;-59
2021/05/27 04:25:00;;;;;;;6.00;2.38;;;;;;;18.81;46.38;101482.59;5034384;28;20057;-59
2021/05/27 04:27:25;;;;;;;5.97;2.10;;;;;;;18.82;46.77;101486.09;5033946;28;20071;-58
2021/05/27 04:30:14;;;;;;;5.63;2.60;;;;;;;18.81;46.44;101487.03;5033433;28;20049;-59
2021/05/27 04:35:40;;;;;;;5.28;2.25;;;;;;;18.79;46.56;101487.16;5032002;28;20068;-58
2021/05/27 04:38:11;;;;;;;5.40;2.30;;;;;;;18.80;46.43;101490.63;5033033;28;20104;-61
2021/05/27 04:40:39;;;;;;;5.07;2.38;;;;;;;18.80;46.30;101493.28;5034055;28;20026;-60
2021/05/27 04:43:05;;;;;;;4.75;2.17;;;;;;;18.77;46.51;101489.06;5033673;28;20071;-60
2021/05/27 04:45:32;;;;;;;5.57;2.20;;;;;;;18.77;46.33;101488.22;5032942;28;20105;-59
2021/05/27 04:47:58;;;;;;;5.38;2.17;;;;;;;18.77;46.50;101491.72;5033791;28;20021;-59
2021/05/27 04:50:24;;;;;;;4.25;2.10;;;;;;;18.77;46.63;101491.72;5033472;28;20056;-59
2021/05/27 04:52:50;;;;;;;5.88;2.30;;;;;;;18.78;46.57;101508.41;5033022;28;20422;-58
2021/05/27 04:55:17;;;;;;;4.03;1.90;;;;;;;18.77;46.50;101502.28;5033463;28;20036;-59
2021/05/27 04:57:42;;;;;;;5.63;2.40;;;;;;;18.75;46.60;101503.34;5032740;28;20466;-59
2021/05/27 05:00:11;;;;;;;4.90;2.17;;;;;;;18.74;46.50;101501.63;5033256;28;20042;-59
2021/05/27 05:02:37;;;;;;;4.40;2.15;;;;;;;18.76;46.45;101513.78;5033487;28;20025;-59
2021/05/27 05:05:03;;;;;;;5.78;2.30;;;;;;;18.75;46.59;101522.66;5032418;28;20024;-59
2021/05/27 05:07:28;;;;;;;5.20;2.40;;;;;;;18.76;46.69;101510.31;5033295;28;20156;-60
2021/05/27 05:09:53;;;;;;;4.90;2.10;;;;;;;18.76;46.33;101523.53;5033865;28;20063;-59
2021/05/27 05:12:21;;;;;;;5.03;2.10;;;;;;;18.75;46.25;101522.66;5032661;28;20057;-59
2021/05/27 05:14:47;;;;;;;4.95;2.20;;;;;;;18.76;46.60;101526.16;5033365;28;20021;-59
2021/05/27 05:17:12;;;;;;;4.00;1.85;;;;;;;18.74;46.41;101526.28;5033050;28;20032;-59
2021/05/27 05:19:37;;;;;;;4.80;1.80;;;;;;;18.75;46.39;101527.09;5032722;28;20409;-59
2021/05/27 05:22:03;;;;;;;4.75;2.00;;;;;;;18.74;46.55;101520.13;5033024;28;20452;-60
2021/05/27 05:24:28;;;;;;;4.75;1.90;;;;;;;18.75;46.52;101525.28;5033185;28;20484;-60
2021/05/27 05:26:54;;;;;;;4.20;2.10;;;;;;;18.77;46.47;101531.31;5032578;28;20031;-59
2021/05/27 05:29:19;;;;;;;5.60;2.22;;;;;;;18.80;46.63;101523.19;5032670;28;20032;-60
2021/05/27 05:31:45;;;;;;;5.80;2.05;;;;;;;18.85;46.80;101530.81;5032755;28;20041;-59
2021/05/27 05:34:19;;;;;;;4.45;1.80;;;;;;;18.89;46.77;101521.69;5031892;28;20052;-59
2021/05/27 05:36:44;;;;;;;4.22;1.80;;;;;;;18.94;46.84;101523.97;5033171;28;20053;-59
2021/05/27 05:39:10;;;;;;;4.53;2.10;;;;;;;18.97;46.52;101526.41;5032544;28;20060;-60
2021/05/27 05:41:35;;;;;;;4.00;1.92;;;;;;;19.00;46.65;101526.19;5032095;28;20033;-59
2021/05/27 05:44:00;;;;;;;4.72;2.00;;;;;;;19.06;46.48;101524.84;5032782;28;20025;-60
2021/05/27 05:46:26;;;;;;;4.50;2.00;;;;;;;19.11;46.31;101534.13;5032374;28;20045;-60
2021/05/27 05:48:51;;;;;;;4.60;1.98;;;;;;;19.13;46.30;101526.94;5031797;28;20372;-59
2021/05/27 05:51:17;;;;;;;4.30;1.75;;;;;;;19.19;46.28;101536.22;5032608;28;20026;-60
2021/05/27 05:53:42;;;;;;;4.10;1.63;;;;;;;19.23;45.74;101532.38;5032567;28;20112;-59
2021/05/27 05:56:08;;;;;;;4.00;1.63;;;;;;;19.24;45.92;101535.88;5031745;28;20041;-59
2021/05/27 05:58:33;;;;;;;3.42;1.70;;;;;;;19.26;46.09;101537.41;5032500;28;20205;-59
2021/05/27 06:00:59;;;;;;;4.97;1.70;;;;;;;19.30;46.19;101535.41;5031746;28;20033;-59
2021/05/27 06:03:24;;;;;;;5.88;1.92;;;;;;;19.33;46.16;101543.94;5032175;28;20025;-59
2021/05/27 06:05:52;;;;;;;4.13;1.80;;;;;;;19.34;46.18;101537.72;5032736;28;20032;-59
2021/05/27 06:08:18;;;;;;;5.32;2.10;;;;;;;19.44;46.31;101552.84;5031484;28;20033;-59
2021/05/27 06:10:44;;;;;;;4.85;1.77;;;;;;;19.45;46.07;101549.25;5032550;28;20561;-60
2021/05/27 06:13:09;;;;;;;4.80;1.90;;;;;;;19.49;46.45;101562.13;5032010;28;20033;-60
2021/05/27 06:15:40;;;;;;;4.63;2.13;;;;;;;19.50;46.27;101558.53;5031746;28;20037;-59
2021/05/27 06:18:05;;;;;;;5.88;1.90;;;;;;;19.52;46.11;101558.41;5032166;28;20259;-58
2021/05/27 06:20:31;;;;;;;4.80;1.73;;;;;;;19.50;46.31;101549.75;5031834;28;20473;-59
2021/05/27 06:22:56;;;;;;;5.18;1.75;;;;;;;19.52;46.25;101559.25;5031547;28;20025;-59
2021/05/27 06:25:23;;;;;;;4.82;1.70;;;;;;;19.53;46.33;101557.44;5031922;28;20029;-59
2021/05/27 06:27:49;;;;;;;5.43;1.90;;;;;;;19.54;46.19;101562.63;5032209;28;20174;-59
2021/05/27 06:30:18;;;;;;;6.05;1.90;;;;;;;19.55;46.50;101556.38;5031025;28;20358;-60
2021/05/27 06:32:43;;;;;;;6.43;1.95;;;;;;;19.58;46.57;101561.44;5032347;28;20021;-59
2021/05/27 06:35:13;;;;;;;4.05;1.60;;;;;;;19.61;46.68;101552.41;5031924;28;20028;-59
2021/05/27 06:37:39;;;;;;;5.72;1.65;;;;;;;19.64;46.35;101561.91;5031690;28;20029;-60
2021/05/27 06:40:11;;;;;;;7.78;1.80;;;;;;;19.65;46.61;101555.69;5032019;28;20120;-60
2021/05/27 06:42:37;;;;;;;5.53;1.88;;;;;;;19.64;46.33;101561.91;5032503;28;20044;-63
2021/05/27 06:45:03;;;;;;;5.63;1.70;;;;;;;19.65;46.51;101564.44;5031445;28;20376;-63
2021/05/27 06:47:28;;;;;;;5.72;1.98;;;;;;;19.66;46.99;101575.84;5032250;28;20116;-59
2021/05/27 06:49:53;;;;;;;5.00;1.60;;;;;;;19.66;47.16;101575.84;5032167;28;20053;-60
2021/05/27 06:52:22;;;;;;;4.70;1.73;;;;;;;19.66;46.77;101574.06;5031042;28;20388;-60
2021/05/27 06:54:47;;;;;;;5.40;2.00;;;;;;;19.66;47.19;101581.16;5032168;28;20262;-59
2021/05/27 06:57:13;;;;;;;4.93;2.10;;;;;;;19.65;46.86;101580.31;5031029;28;20022;-59
2021/05/27 06:59:38;;;;;;;6.47;1.90;;;;;;;19.64;46.97;101583.91;5031761;28;20495;-59
2021/05/27 07:02:03;;;;;;;8.32;2.13;;;;;;;19.64;47.14;101586.56;5031763;28;20517;-58
2021/05/27 07:04:29;;;;;;;5.93;1.90;;;;;;;19.69;47.30;101578.28;5031164;28;20053;-59
2021/05/27 07:06:57;;;;;;;5.00;2.13;;;;;;;19.72;46.91;101576.22;5032044;28;20500;-59
2021/05/27 07:09:22;;;;;;;7.50;1.85;;;;;;;19.74;47.32;101578.75;5031862;28;20093;-59
2021/05/27 07:11:48;;;;;;;4.93;2.03;;;;;;;19.76;47.34;101592.75;5031651;28;20506;-61
2021/05/27 07:14:13;;;;;;;6.38;1.90;;;;;;;19.76;47.24;101584.81;5031692;28;20032;-60
2021/05/27 07:16:39;;;;;;;5.38;2.08;;;;;;;19.76;47.67;101590.09;5032287;28;20469;-60
2021/05/27 07:19:04;;;;;;;6.05;1.98;;;;;;;19.75;47.35;101583.94;5031032;28;20485;-59
2021/05/27 07:21:29;;;;;;;5.13;1.88;;;;;;;19.78;47.28;101596.13;5032034;28;20473;-59
2021/05/27 07:23:55;;;;;;;4.80;1.80;;;;;;;19.77;47.48;101591.78;5032023;28;20065;-61
2021/05/27 07:26:20;;;;;;;5.00;1.85;;;;;;;19.78;47.86;101596.13;5031013;28;20417;-62
2021/05/27 07:28:46;;;;;;;6.05;1.98;;;;;;;19.77;47.76;101598.88;5032367;28;20108;-60
2021/05/27 07:31:17;;;;;;;5.95;1.70;;;;;;;19.77;47.71;101597.06;5033870;28;20101;-59
2021/05/27 07:33:43;;;;;;;7.57;1.90;;;;;;;19.77;47.61;101598.88;5035539;28;20127;-59
2021/05/27 07:36:08;;;;;;;5.63;2.13;;;;;;;19.75;48.07;101604.25;5036378;28;20033;-60
2021/05/27 07:38:37;;;;;;;6.97;2.00;;;;;;;19.73;47.83;101600.88;5036356;28;20453;-61
2021/05/27 07:41:04;;;;;;;6.88;2.03;;;;;;;19.71;47.88;101597.50;5035691;28;20109;-60
2021/05/27 07:43:30;;;;;;;8.65;2.03;;;;;;;19.72;48.21;101607.13;5035857;28;20027;-60
2021/05/27 07:45:55;;;;;;;5.45;1.90;;;;;;;19.70;47.86;101603.75;5035605;28;20033;-60
2021/05/27 07:48:23;;;;;;;6.43;2.47;;;;;;;19.67;48.28;101611.94;5034099;28;20611;-59
2021/05/27 07:50:48;;;;;;;5.97;2.20;;;;;;;19.65;47.84;101606.75;5035063;28;20282;-60
2021/05/27 07:53:17;;;;;;;6.80;2.10;;;;;;;19.63;48.37;101608.69;5034741;28;20040;-58
2021/05/27 07:55:42;;;;;;;5.95;1.95;;;;;;;19.61;47.91;101610.56;5034045;28;20111;-59
2021/05/27 07:58:08;;;;;;;6.95;2.30;;;;;;;19.59;48.28;101609.84;5009882;28;20044;-59
2021/05/27 08:00:33;;;;;;;6.10;1.85;;;;;;;19.56;48.41;101612.72;5035701;28;20055;-59
2021/05/27 08:02:58;;;;;;;5.45;1.88;;;;;;;19.58;48.34;101627.53;5034990;28;20449;-58
2021/05/27 08:05:24;;;;;;;7.78;2.13;;;;;;;19.56;48.23;101623.31;5034853;28;20350;-60
2021/05/27 08:07:49;;;;;;;8.10;1.95;;;;;;;19.57;48.62;101625.00;5034050;28;20454;-59
2021/05/27 08:10:15;;;;;;;5.35;1.88;;;;;;;19.56;48.72;101625.94;5034301;28;20037;-59
2021/05/27 08:12:41;;;;;;;6.30;1.70;;;;;;;19.57;48.44;101614.44;5034599;28;20033;-59
2021/05/27 08:15:08;;;;;;;6.03;2.15;;;;;;;19.60;48.57;101623.91;5033565;28;20022;-59
2021/05/27 08:17:33;;;;;;;5.88;1.98;;;;;;;19.64;48.64;101625.38;5034555;28;20045;-60
2021/05/27 08:19:58;;;;;;;7.15;1.90;;;;;;;19.67;48.62;101622.50;5034539;28;20401;-60
2021/05/27 08:22:27;;;;;;;6.10;1.87;;;;;;;19.68;48.30;101617.09;5033196;28;20040;-60
2021/05/27 08:24:53;;;;;;;6.40;2.00;;;;;;;19.71;48.38;101639.81;5034214;28;20333;-59
2021/05/27 08:27:18;;;;;;;7.75;2.00;;;;;;;19.70;48.61;101638.97;5034125;28;20033;-59
2021/05/27 08:29:43;;;;;;;5.75;1.75;;;;;;;19.73;48.50;101641.38;5033321;28;20053;-59
2021/05/27 08:32:09;;;;;;;5.13;2.05;;;;;;;19.74;48.76;101642.22;5034033;28;20033;-59
2021/05/27 08:34:34;;;;;;;6.95;2.08;;;;;;;19.74;48.48;101642.22;5034201;28;20018;-59
2021/05/27 08:37:00;;;;;;;5.15;1.92;;;;;;;19.75;48.80;101651.84;5033426;28;20069;-58
2021/05/27 08:39:26;;;;;;;5.55;2.05;;;;;;;19.74;48.59;101656.31;5033763;28;20022;-60
2021/05/27 08:41:51;;;;;;;8.95;2.30;;;;;;;19.72;48.48;101647.63;5033263;28;20033;-58
2021/05/27 08:44:16;;;;;;;7.10;2.20;;;;;;;19.70;48.73;101649.56;5032889;28;20108;-59
2021/05/27 08:46:42;;;;;;;7.63;2.13;;;;;;;19.67;48.49;101655.06;5034060;28;20065;-59
2021/05/27 08:49:07;;;;;;;6.75;2.08;;;;;;;19.66;48.57;101652.53;5033491;28;20044;-59
2021/05/27 08:51:35;;;;;;;5.55;2.08;;;;;;;19.65;48.57;101666.75;5035796;28;20033;-59
2021/05/27 08:54:06;;;;;;;7.82;1.85;;;;;;;19.65;48.59;101664.09;5036436;28;20032;-60
2021/05/27 08:56:35;;;;;;;5.68;1.92;;;;;;;19.65;48.57;101672.88;5034546;28;20030;-59
2021/05/27 08:59:01;;;;;;;5.88;2.05;;;;;;;19.64;48.64;101671.16;5033246;28;20030;-57
2021/05/27 09:01:26;;;;;;;7.90;2.20;;;;;;;19.62;48.73;101667.81;5033871;28;20037;-59
2021/05/27 09:03:55;;;;;;;8.98;2.25;;;;;;;19.61;48.77;101670.56;5033500;28;20017;-59
2021/05/27 09:06:22;;;;;;;5.57;1.98;;;;;;;19.62;49.05;101669.63;5033260;28;20032;-59
2021/05/27 09:08:47;;;;;;;7.45;2.25;;;;;;;19.58;48.84;101666.34;5033390;28;20500;-58
2021/05/27 09:11:15;;;;;;;8.13;2.63;;;;;;;19.58;48.49;101669.84;5032439;28;20030;-59
2021/05/27 09:14:01;;;;;;;5.43;2.00;;;;;;;19.58;48.69;101669.84;5033592;28;20071;-60
2021/05/27 09:16:27;;;;;;;6.85;2.08;;;;;;;19.57;48.85;101685.81;5033413;28;20049;-59
2021/05/27 09:18:54;;;;;;;6.50;2.38;;;;;;;19.56;48.76;101689.41;5032777;28;20494;-61
2021/05/27 09:21:37;;;;;;;7.85;1.92;;;;;;;19.54;48.70;101689.53;5032771;28;20036;-58
2021/05/27 09:24:03;;;;;;;3.83;2.00;;;;;;;19.48;48.56;101682.03;5033291;28;20018;-59
2021/05/27 09:26:32;;;;;;;6.63;2.53;;;;;;;19.51;48.61;101686.28;5026326;28;20067;-58
2021/05/27 09:29:23;;;;;;;5.00;2.00;;;;;;;19.51;48.42;101695.03;5033398;28;20067;-59
2021/05/27 09:31:57;;;;;;;5.43;1.92;;;;;;;19.51;48.43;101689.75;5030998;28;20124;-58
2021/05/27 09:34:42;;;;;;;5.03;2.30;;;;;;;19.47;48.13;101688.31;5032917;28;20064;-59
2021/05/27 09:37:26;;;;;;;5.25;2.13;;;;;;;19.53;48.31;101694.91;5032790;28;20256;-58
2021/05/27 09:39:53;;;;;;;4.43;1.85;;;;;;;19.52;48.33;101696.72;5032002;28;20486;-59
2021/05/27 09:42:19;;;;;;;5.53;1.95;;;;;;;19.50;48.35;101685.44;5032270;28;20347;-59
2021/05/27 09:44:44;;;;;;;7.20;2.30;;;;;;;19.52;48.81;101704.66;5033060;28;20056;-65
2021/05/27 09:47:09;;;;;;;6.35;2.45;;;;;;;19.51;48.60;101705.59;5031893;28;20022;-59
2021/05/27 09:49:35;;;;;;;7.30;2.35;;;;;;;19.48;48.48;101703.19;5032888;28;20021;-59
2021/05/27 09:52:24;;;;;;;5.32;2.42;;;;;;;19.47;48.55;101712.09;5032891;28;20029;-60
2021/05/27 09:54:55;;;;;;;6.80;2.60;;;;;;;19.49;48.77;101711.97;5031336;28;20026;-59
2021/05/27 09:57:22;;;;;;;5.78;2.60;;;;;;;19.48;48.93;101705.00;5032843;28;20026;-61
2021/05/27 09:59:47;;;;;;;5.55;2.50;;;;;;;19.48;48.88;101708.47;5032706;28;20485;-60
2021/05/27 10:02:13;;;;;;;7.40;2.63;;;;;;;19.48;49.16;101715.56;5031668;28;20053;-61
2021/05/27 10:05:08;;;;;;;5.18;2.40;;;;;;;19.47;49.31;101724.44;5032704;28;20108;-61
2021/05/27 10:07:55;;;;;;;6.53;2.80;;;;;;;19.46;49.33;101720.13;4995138;28;20045;-61
2021/05/27 10:10:22;;;;;;;6.35;2.78;;;;;;;19.45;49.15;101723.72;5032434;28;20033;-59
2021/05/27 10:12:50;;;;;;;6.35;2.72;;;;;;;19.44;49.50;101724.66;5032495;28;20055;-60
2021/05/27 10:15:18;;;;;;;9.80;3.03;;;;;;;19.43;49.60;101728.28;5031111;28;20466;-60
2021/05/27 10:17:47;;;;;;;6.95;2.97;;;;;;;19.43;49.72;101734.41;5032226;28;20034;-59
2021/05/27 10:20:17;;;;;;;8.07;2.50;;;;;;;19.42;49.90;101735.34;5031720;28;20458;-59
2021/05/27 10:22:46;;;;;;;4.85;2.55;;;;;;;19.42;49.62;101740.66;5031279;28;20420;-60
2021/05/27 10:25:13;;;;;;;6.40;2.65;;;;;;;19.45;49.77;101745.72;5032102;28;20025;-62
2021/05/27 10:27:42;;;;;;;5.72;2.55;;;;;;;19.47;49.79;101743.81;4978333;28;20045;-61
2021/05/27 10:30:08;;;;;;;9.18;2.95;;;;;;;19.50;49.78;101748.88;5030666;28;20053;-60
2021/05/27 10:32:39;;;;;;;8.00;2.50;;;;;;;19.54;49.66;101745.03;5031922;28;20469;-60
2021/05/27 10:35:06;;;;;;;6.53;2.80;;;;;;;19.58;49.54;101740.38;5031853;28;20100;-60
2021/05/27 10:37:37;;;;;;;6.53;2.65;;;;;;;19.63;49.68;101734.75;5031204;28;20025;-60
2021/05/27 10:40:11;;;;;;;6.57;2.47;;;;;;;19.65;49.40;101732.84;5031630;28;20029;-62
2021/05/27 10:42:55;;;;;;;6.47;2.50;;;;;;;19.68;49.44;101737.91;5031150;28;20037;-59
2021/05/27 10:45:21;;;;;;;7.15;2.70;;;;;;;19.65;49.29;101741.63;5031743;28;20026;-58
2021/05/27 10:48:12;;;;;;;8.45;2.97;;;;;;;19.67;49.18;101746.78;5032310;28;20029;-59
2021/05/27 10:50:56;;;;;;;6.30;2.80;;;;;;;19.67;49.46;101752.09;5031106;28;20033;-58
2021/05/27 10:53:49;;;;;;;7.13;2.75;;;;;;;19.63;49.07;101740.03;5031553;28;20037;-59
2021/05/27 10:56:35;;;;;;;5.85;2.75;;;;;;;19.63;49.42;101747.97;5030195;28;20033;-59
2021/05/27 10:59:00;;;;;;;7.97;3.00;;;;;;;19.61;49.43;101747.25;5024372;28;20038;-59
2021/05/27 11:01:29;;;;;;;6.78;2.50;;;;;;;19.60;49.21;101758.75;5031928;28;20051;-59
2021/05/27 11:03:59;;;;;;;6.95;2.55;;;;;;;19.57;49.09;101760.69;5031153;28;20108;-59
2021/05/27 11:06:28;;;;;;;4.93;2.25;;;;;;;19.56;49.44;101758.97;5034302;28;20548;-58
2021/05/27 11:09:31;;;;;;;6.13;2.90;;;;;;;19.56;49.34;101764.28;5035836;28;20076;-58
2021/05/27 11:12:09;;;;;;;6.60;2.38;;;;;;;19.55;49.49;101764.38;5035306;28;20384;-59
2021/05/27 11:14:44;;;;;;;8.15;2.80;;;;;;;19.54;49.27;101773.28;5036012;28;20037;-58
2021/05/27 11:17:18;;;;;;;6.03;2.55;;;;;;;19.52;49.41;101772.56;5035704;28;20017;-60
2021/05/27 11:20:08;;;;;;;6.97;2.53;;;;;;;19.52;49.41;101764.63;5034795;28;20487;-59
2021/05/27 11:22:46;;;;;;;7.93;3.15;;;;;;;19.51;49.48;101769.06;5035690;28;20032;-59
2021/05/27 11:25:15;;;;;;;6.65;3.08;;;;;;;19.53;49.43;101769.78;5034652;28;20033;-63
2021/05/27 11:27:54;;;;;;;7.28;2.50;;;;;;;19.56;49.62;101776.66;5035087;28;20044;-60
2021/05/27 11:30:36;;;;;;;6.80;2.80;;;;;;;19.56;49.42;101772.22;5034937;28;20049;-58
2021/05/27 11:33:31;;;;;;;6.97;2.80;;;;;;;19.61;49.42;101771.88;5034567;28;20021;-58
2021/05/27 11:36:08;;;;;;;5.93;2.67;;;;;;;19.63;49.49;101782.34;5035561;28;20108;-60
2021/05/27 11:38:35;;;;;;;5.38;2.78;;;;;;;19.62;49.13;101778.03;5034735;28;20049;-58
2021/05/27 11:41:10;;;;;;;9.75;3.17;;;;;;;19.63;49.47;101779.69;5035087;28;20048;-59
2021/05/27 11:43:39;;;;;;;;;;;;;;;19.63;49.47;101788.50;5035942;28;20030;-58